createdAt,value
2023-01-27T00:01:19.824Z,0.02
2023-01-27T00:06:23.821Z,-0.15
2023-01-27T00:11:46.083Z,-0.05
2023-01-27T00:16:49.536Z,0.26
2023-01-27T00:22:11.309Z,0.40
2023-01-27T00:27:14.317Z,0.80
2023-01-27T00:32:36.124Z,1.00
2023-01-27T00:37:39.195Z,1.07
2023-01-27T00:42:45.125Z,1.35
2023-01-27T00:47:52.632Z,1.56
2023-01-27T00:52:59.355Z,1.74
2023-01-27T00:58:02.791Z,2.11
2023-01-27T01:03:06.354Z,2.16
2023-01-27T01:08:10.021Z,2.16
2023-01-27T01:13:14.150Z,2.22
2023-01-27T01:18:17.803Z,2.30
2023-01-27T01:23:21.416Z,2.07
2023-01-27T01:28:26.206Z,1.96
2023-01-27T01:33:29.782Z,2.18
2023-01-27T01:38:34.610Z,2.38
2023-01-27T01:43:38.624Z,1.83
2023-01-27T01:48:44.382Z,1.69
2023-01-27T01:53:54.040Z,1.41
2023-01-27T01:59:02.833Z,1.07
2023-01-27T02:04:11.854Z,0.75
2023-01-27T02:09:21.875Z,0.57
2023-01-27T02:14:25.672Z,0.46
2023-01-27T02:19:42.565Z,0.33
2023-01-27T02:24:51.001Z,0.24
2023-01-27T02:29:54.266Z,0.07
2023-01-27T02:34:57.917Z,-0.11
2023-01-27T02:40:03.465Z,-0.24
2023-01-27T02:45:07.669Z,-0.35
2023-01-27T02:50:12.308Z,-0.47
2023-01-27T02:55:15.963Z,-0.55
2023-01-27T03:00:19.477Z,-0.47
2023-01-27T03:05:23.733Z,-0.80
2023-01-27T03:10:27.342Z,-0.48
2023-01-27T03:15:48.709Z,-0.47
2023-01-27T03:20:52.525Z,-0.40
2023-01-27T03:25:55.769Z,-0.52
2023-01-27T03:31:19.843Z,-0.54
2023-01-27T03:36:47.880Z,-0.66
2023-01-27T03:42:12.549Z,-0.82
2023-01-27T03:47:16.865Z,-1.03
2023-01-27T03:52:19.866Z,-1.17
2023-01-27T03:57:23.419Z,-1.28
2023-01-27T04:02:44.892Z,-1.39
2023-01-27T04:07:48.379Z,-1.43
2023-01-27T04:12:51.455Z,-1.53
2023-01-27T04:17:56.178Z,-1.54
2023-01-27T04:22:59.488Z,-1.62
2023-01-27T04:28:04.237Z,-1.76
2023-01-27T04:33:10.817Z,-1.91
2023-01-27T04:38:14.889Z,-1.89
2023-01-27T04:43:18.796Z,-2.08
2023-01-27T04:48:24.308Z,-2.05
2023-01-27T04:53:27.781Z,-2.03
2023-01-27T04:58:31.858Z,-2.07
2023-01-27T05:03:35.098Z,-1.98
2023-01-27T05:08:39.015Z,-2.04
2023-01-27T05:13:42.697Z,-2.10
2023-01-27T05:18:47.866Z,-2.09
2023-01-27T05:23:51.777Z,-2.19
2023-01-27T05:28:57.732Z,-2.17
2023-01-27T05:34:02.841Z,-2.30
2023-01-27T05:39:07.877Z,-2.35
2023-01-27T05:44:14.245Z,-2.43
2023-01-27T05:49:17.739Z,-2.58
2023-01-27T05:54:21.371Z,-2.59
2023-01-27T05:59:25.156Z,-2.56
2023-01-27T06:04:28.405Z,-2.56
2023-01-27T06:09:31.494Z,-2.58
2023-01-27T06:14:34.527Z,-2.52
2023-01-27T06:19:38.107Z,-2.51
2023-01-27T06:24:41.995Z,-2.39
2023-01-27T06:29:45.223Z,-2.28
2023-01-27T06:34:48.236Z,-2.20
2023-01-27T06:39:51.376Z,-1.98
2023-01-27T06:44:56.194Z,-1.74
2023-01-27T06:49:59.177Z,-1.47
2023-01-27T06:55:03.044Z,-1.14
2023-01-27T07:00:07.718Z,-0.82
2023-01-27T07:05:11.899Z,-0.53
2023-01-27T07:10:16.174Z,0.31
2023-01-27T07:15:19.748Z,2.81
2023-01-27T07:20:23.812Z,7.82
2023-01-27T07:25:27.656Z,8.08
2023-01-27T07:30:32.089Z,11.20
2023-01-27T07:35:36.562Z,10.49
2023-01-27T07:40:40.217Z,10.09
2023-01-27T07:45:43.909Z,10.06
2023-01-27T07:50:47.055Z,11.17
2023-01-27T07:55:50.335Z,11.78
2023-01-27T08:00:53.357Z,13.21
2023-01-27T08:05:56.695Z,14.57
2023-01-27T08:11:01.461Z,14.72
2023-01-27T08:16:07.272Z,13.83
2023-01-27T08:21:12.931Z,15.06
2023-01-27T08:26:16.088Z,16.07
2023-01-27T08:31:19.797Z,15.10
2023-01-27T08:36:24.509Z,16.63
2023-01-27T08:41:28.298Z,15.79
2023-01-27T08:46:31.836Z,15.80
2023-01-27T08:51:35.570Z,16.43
2023-01-27T08:56:39.333Z,16.13
2023-01-27T09:01:42.519Z,15.58
2023-01-27T09:06:48.555Z,15.81
2023-01-27T09:11:52.614Z,12.81
2023-01-27T09:16:56.092Z,11.06
2023-01-27T09:21:59.129Z,10.87
2023-01-27T09:27:02.291Z,10.55
2023-01-27T09:32:06.910Z,14.44
2023-01-27T09:37:13.066Z,13.14
2023-01-27T09:42:16.059Z,14.22
2023-01-27T09:47:42.487Z,14.08
2023-01-27T09:53:18.747Z,14.08
2023-01-27T09:58:42.807Z,14.24
2023-01-27T10:04:08.655Z,14.40
2023-01-27T10:09:25.166Z,14.87
2023-01-27T10:14:52.450Z,12.75
2023-01-27T10:20:07.267Z,10.85
2023-01-27T10:25:25.716Z,9.38
2023-01-27T10:30:37.568Z,9.15
2023-01-27T10:35:46.977Z,8.82
2023-01-27T10:40:53.042Z,8.99
2023-01-27T10:46:07.898Z,8.95
2023-01-27T10:51:23.325Z,8.26
2023-01-27T10:56:45.323Z,7.89
2023-01-27T11:01:56.592Z,6.99
2023-01-27T11:07:01.042Z,7.57
2023-01-27T11:12:10.845Z,6.98
2023-01-27T11:17:39.280Z,7.14
2023-01-27T11:22:51.726Z,6.79
2023-01-27T11:28:07.446Z,6.63
2023-01-27T11:33:30.905Z,6.61
2023-01-27T11:38:37.302Z,6.58
2023-01-27T11:43:40.593Z,6.46
2023-01-27T11:48:48.946Z,6.82
2023-01-27T11:54:23.968Z,6.79
2023-01-27T11:59:38.172Z,7.21
2023-01-27T12:05:00.200Z,8.58
2023-01-27T12:10:22.109Z,8.84
2023-01-27T12:15:28.486Z,8.27
2023-01-27T12:20:35.228Z,7.99
2023-01-27T12:25:48.413Z,8.30
2023-01-27T12:30:56.449Z,7.86
2023-01-27T12:36:12.525Z,8.45
2023-01-27T12:41:23.864Z,8.09
2023-01-27T12:46:29.001Z,8.84
2023-01-27T12:51:42.381Z,10.27
2023-01-27T12:56:45.753Z,9.56
2023-01-27T13:02:03.768Z,10.17
2023-01-27T13:07:17.181Z,11.94
2023-01-27T13:12:26.034Z,11.68
2023-01-27T13:17:38.327Z,11.95
2023-01-27T13:22:45.957Z,11.47
2023-01-27T13:27:50.538Z,10.49
2023-01-27T13:32:56.740Z,9.86
2023-01-27T13:38:08.579Z,9.68
2023-01-27T13:43:20.218Z,10.55
2023-01-27T13:48:49.288Z,10.94
2023-01-27T13:54:00.752Z,12.11
2023-01-27T13:59:48.909Z,14.70
2023-01-27T14:05:13.363Z,13.71
2023-01-27T14:10:22.677Z,14.59
2023-01-27T14:15:43.718Z,15.32
2023-01-27T14:21:08.593Z,15.58
2023-01-27T14:26:17.744Z,16.44
2023-01-27T14:31:25.984Z,13.77
2023-01-27T14:36:29.838Z,11.84
2023-01-27T14:41:50.150Z,11.94
2023-01-27T14:46:56.053Z,10.36
2023-01-27T14:52:37.728Z,11.03
2023-01-27T14:57:56.993Z,12.58
2023-01-27T15:03:18.414Z,13.65
2023-01-27T15:08:51.594Z,10.62
2023-01-27T15:14:33.482Z,9.37
2023-01-27T15:19:57.574Z,8.37
2023-01-27T15:25:00.641Z,8.07
2023-01-27T15:30:21.004Z,7.98
2023-01-27T15:35:33.724Z,7.87
2023-01-27T15:41:04.989Z,7.77
2023-01-27T15:46:30.092Z,7.69
2023-01-27T15:51:37.117Z,7.60
2023-01-27T15:56:50.906Z,7.10
2023-01-27T16:02:18.025Z,6.83
2023-01-27T16:07:29.676Z,6.50
2023-01-27T16:12:45.278Z,6.19
2023-01-27T16:18:25.053Z,5.82
2023-01-27T16:23:58.099Z,5.71
2023-01-27T16:29:13.204Z,5.71
2023-01-27T16:34:47.135Z,5.60
2023-01-27T16:39:59.663Z,5.32
2023-01-27T16:45:17.173Z,5.48
2023-01-27T16:50:32.425Z,5.51
2023-01-27T16:55:35.642Z,5.47
2023-01-27T17:00:39.654Z,5.46
2023-01-27T17:21:39.409Z,4.96
2023-01-27T17:26:46.627Z,4.98
2023-01-27T17:31:51.475Z,5.01
2023-01-27T17:37:13.556Z,5.04
2023-01-27T17:42:18.761Z,4.96
2023-01-27T17:47:22.916Z,4.95
2023-01-27T17:52:27.932Z,5.04
2023-01-27T17:57:36.527Z,5.00
2023-01-27T18:02:48.748Z,5.15
2023-01-27T18:07:52.443Z,5.08
2023-01-27T18:12:56.608Z,4.98
2023-01-27T18:18:02.440Z,5.00
2023-01-27T18:23:14.248Z,4.86
2023-01-27T18:28:18.540Z,4.88
2023-01-27T18:33:21.795Z,5.02
2023-01-27T18:38:35.870Z,5.04
2023-01-27T18:43:39.084Z,5.08
2023-01-27T18:48:42.607Z,5.14
2023-01-27T18:53:45.967Z,5.18
2023-01-27T18:58:49.910Z,5.07
2023-01-27T19:03:57.475Z,4.94
2023-01-27T19:09:01.121Z,4.81
2023-01-27T19:14:04.806Z,4.70
2023-01-27T19:19:11.843Z,4.76
2023-01-27T19:24:15.652Z,4.66
2023-01-27T19:29:19.262Z,4.61
2023-01-27T19:34:22.860Z,4.47
2023-01-27T19:39:27.115Z,4.53
2023-01-27T19:44:30.791Z,4.63
2023-01-27T19:49:33.847Z,4.56
2023-01-27T19:54:37.546Z,4.64
2023-01-27T19:59:41.227Z,4.76
2023-01-27T20:04:44.337Z,4.80
2023-01-27T20:09:47.781Z,4.78
2023-01-27T20:14:51.497Z,4.86
2023-01-27T20:19:54.567Z,4.80
2023-01-27T20:24:58.311Z,4.90
2023-01-27T20:30:01.827Z,5.02
2023-01-27T20:35:05.740Z,4.97
2023-01-27T20:40:12.788Z,4.95
2023-01-27T20:45:16.543Z,4.96
2023-01-27T20:50:21.514Z,4.93
2023-01-27T20:55:25.441Z,4.84
2023-01-27T21:00:28.765Z,4.81
2023-01-27T21:05:34.590Z,4.76
2023-01-27T21:10:37.681Z,4.63
2023-01-27T21:15:47.990Z,4.44
2023-01-27T21:20:56.791Z,4.09
2023-01-27T21:26:12.112Z,3.74
2023-01-27T21:31:17.565Z,3.58
2023-01-27T21:36:21.842Z,3.42
2023-01-27T21:41:45.529Z,3.34
2023-01-27T21:46:49.301Z,3.34
2023-01-27T21:51:52.816Z,3.53
2023-01-27T21:56:55.945Z,3.61
2023-01-27T22:01:59.059Z,3.58
2023-01-27T22:07:02.143Z,3.52
2023-01-27T22:12:07.293Z,3.49
2023-01-27T22:17:10.568Z,3.49
2023-01-27T22:22:14.648Z,3.52
2023-01-27T22:27:17.800Z,3.71
2023-01-27T22:32:20.969Z,3.74
2023-01-27T22:37:24.522Z,3.77
2023-01-27T22:42:28.510Z,3.82
2023-01-27T22:47:31.853Z,3.84
2023-01-27T22:52:39.907Z,3.86
2023-01-27T22:57:45.239Z,3.88
2023-01-27T23:02:49.187Z,3.74
2023-01-27T23:07:52.319Z,3.81
2023-01-27T23:12:55.910Z,3.75
2023-01-27T23:17:58.971Z,3.83
2023-01-27T23:23:02.525Z,3.87
2023-01-27T23:28:05.576Z,3.83
2023-01-27T23:33:09.081Z,3.82
2023-01-27T23:38:30.263Z,3.75
2023-01-27T23:43:35.119Z,3.60
2023-01-27T23:48:38.422Z,3.37
2023-01-27T23:53:41.484Z,3.20
2023-01-27T23:58:45.348Z,3.15
